Time;durP1;ratioP1;P1;durP2;ratioP2;P2;SDS_P1;SDS_P2;PMS_P1;PMS_P2;Temp;Humidity;BMP_temperature;BMP_pressure;BME280_temperature;BME280_humidity;BME280_pressure;Samples;Min_cycle;Max_cycle;Signal;HPM_P1;HPM_P2
2023/05/24 00:00:17;;;;;;;;;;;;;;;;;;5021773;28;19929;-63
2023/05/24 00:02:43;;;;;;;;;;;;;;;;;;5021912;28;20016;-63
2023/05/24 00:05:09;;;;;;;;;;;;;;;;;;5022335;28;19929;-64
2023/05/24 00:07:35;;;;;;;;;;;;;;;;;;5022574;28;19979;-65
2023/05/24 00:10:01;;;;;;;;;;;;;;;;;;5038853;28;19976;-63
2023/05/24 00:12:27;;;;;;;;;;;;;;;;;;5024154;28;19964;-64
2023/05/24 00:14:53;;;;;;;;;;;;;;;;;;5041930;28;20032;-63
2023/05/24 00:17:20;;;;;;;;;;;;;;;;;;5040392;28;20429;-64
2023/05/24 00:19:46;;;;;;;;;;;;;;;;;;5041061;28;19974;-63
2023/05/24 00:22:12;;;;;;;;;;;;;;;;;;5040522;28;20535;-64
2023/05/24 00:24:38;;;;;;;;;;;;;;;;;;5040013;28;19925;-65
2023/05/24 00:27:04;;;;;;;;;;;;;;;;;;5042343;28;19925;-65
2023/05/24 00:29:30;;;;;;;;;;;;;;;;;;5041937;28;20017;-64
2023/05/24 00:31:56;;;;;;;;;;;;;;;;;;5040313;28;20202;-65
2023/05/24 00:34:22;;;;;;;;;;;;;;;;;;5023571;28;20322;-64
2023/05/24 00:36:48;;;;;;;;;;;;;;;;;;5040999;28;19940;-65
2023/05/24 00:39:14;;;;;;;;;;;;;;;;;;5041972;28;19995;-63
2023/05/24 00:41:41;;;;;;;;;;;;;;;;;;5040384;28;19921;-64
2023/05/24 00:44:09;;;;;;;;;;;;;;;;;;5040701;28;19929;-65
2023/05/24 00:46:35;;;;;;;;;;;;;;;;;;5042302;28;19965;-65
2023/05/24 00:49:01;;;;;;;;;;;;;;;;;;5045385;28;20031;-63
2023/05/24 00:51:27;;;;;;;;;;;;;;;;;;5045439;28;19951;-64
2023/05/24 00:53:53;;;;;;;;;;;;;;;;;;5045438;28;19990;-64
2023/05/24 00:56:19;;;;;;;;;;;;;;;;;;5045914;28;19932;-64
2023/05/24 00:58:45;;;;;;;;;;;;;;;;;;5027026;28;19931;-63
2023/05/24 01:01:11;;;;;;;;;;;;;;;;;;5044096;28;19932;-63
2023/05/24 01:03:38;;;;;;;;;;;;;;;;;;5045250;28;19929;-63
2023/05/24 01:06:04;;;;;;;;;;;;;;;;;;5045720;28;20546;-65
2023/05/24 01:08:31;;;;;;;;;;;;;;;;;;5045223;28;19947;-66
2023/05/24 01:10:56;;;;;;;;;;;;;;;;;;5044882;28;20586;-63
2023/05/24 01:13:22;;;;;;;;;;;;;;;;;;5124822;22;19925;-58
2023/05/24 01:15:48;;;;;;;;;;;;;;;;;;5056106;28;19936;-57
2023/05/24 01:18:14;;;;;;;;;;;;;;;;;;5062923;28;20421;-58
2023/05/24 01:20:40;;;;;;;;;;;;;;;;;;5050418;28;19978;-58
2023/05/24 01:23:06;;;;;;;;;;;;;;;;;;5056760;28;19936;-62
2023/05/24 01:25:32;;;;;;;;;;;;;;;;;;5052975;28;19925;-58
2023/05/24 01:27:58;;;;;;;;;;;;;;;;;;5053139;28;19933;-59
2023/05/24 01:30:24;;;;;;;;;;;;;;;;;;5063737;28;20400;-58
2023/05/24 01:32:50;;;;;;;;;;;;;;;;;;5059562;28;19930;-58
2023/05/24 01:35:16;;;;;;;;;;;;;;;;;;5059331;28;20672;-59
2023/05/24 01:37:42;;;;;;;;;;;;;;;;;;5047465;28;19925;-58
2023/05/24 01:40:08;;;;;;;;;;;;;;;;;;5047622;28;19933;-58
2023/05/24 01:42:34;;;;;;;;;;;;;;;;;;5049705;28;19986;-63
2023/05/24 01:45:00;;;;;;;;;;;;;;;;;;5040355;28;20714;-58
2023/05/24 01:47:26;;;;;;;;;;;;;;;;;;5055120;28;20131;-60
2023/05/24 01:49:52;;;;;;;;;;;;;;;;;;5055062;28;20346;-58
2023/05/24 01:52:18;;;;;;;;;;;;;;;;;;5049285;28;19933;-59
2023/05/24 01:54:44;;;;;;;;;;;;;;;;;;5063915;28;19931;-58
2023/05/24 01:57:10;;;;;;;;;;;;;;;;;;5063604;28;20401;-58
2023/05/24 01:59:36;;;;;;;;;;;;;;;;;;5062793;28;19928;-62
2023/05/24 02:02:02;;;;;;;;;;;;;;;;;;5059645;28;19925;-58
2023/05/24 02:04:28;;;;;;;;;;;;;;;;;;5061280;28;19972;-58
2023/05/24 02:06:54;;;;;;;;;;;;;;;;;;5058883;28;20460;-58
2023/05/24 02:09:20;;;;;;;;;;;;;;;;;;5063860;28;19960;-58
2023/05/24 02:11:46;;;;;;;;;;;;;;;;;;5060195;28;19979;-58
2023/05/24 02:14:12;;;;;;;;;;;;;;;;;;5063570;28;19956;-58
2023/05/24 02:16:41;;;;;;;;;;;;;;;;;;5044633;28;20639;-58
2023/05/24 02:19:07;;;;;;;;;;;;;;;;;;5062000;28;19957;-58
2023/05/24 02:21:33;;;;;;;;;;;;;;;;;;5060702;28;19925;-58
2023/05/24 02:23:59;;;;;;;;;;;;;;;;;;5052403;28;20293;-58
2023/05/24 02:26:25;;;;;;;;;;;;;;;;;;5050139;28;20007;-58
2023/05/24 02:28:51;;;;;;;;;;;;;;;;;;5061212;28;19924;-59
2023/05/24 02:31:17;;;;;;;;;;;;;;;;;;5060927;28;19939;-60
2023/05/24 02:33:43;;;;;;;;;;;;;;;;;;5058001;28;19925;-58
2023/05/24 02:36:09;;;;;;;;;;;;;;;;;;5057657;28;19952;-58
2023/05/24 02:38:36;;;;;;;;;;;;;;;;;;5063078;28;19924;-60
2023/05/24 02:41:02;;;;;;;;;;;;;;;;;;5058472;28;19925;-58
2023/05/24 02:43:27;;;;;;;;;;;;;;;;;;5063040;28;20327;-58
2023/05/24 02:45:54;;;;;;;;;;;;;;;;;;5062099;28;19925;-58
2023/05/24 02:48:20;;;;;;;;;;;;;;;;;;5062616;28;19983;-58
2023/05/24 02:50:46;;;;;;;;;;;;;;;;;;5060461;28;19979;-58
2023/05/24 02:53:12;;;;;;;;;;;;;;;;;;5058270;28;20387;-58
2023/05/24 02:55:38;;;;;;;;;;;;;;;;;;5062474;28;20382;-59
2023/05/24 02:58:05;;;;;;;;;;;;;;;;;;5063195;28;19924;-58
2023/05/24 03:00:31;;;;;;;;;;;;;;;;;;5060600;28;19946;-58
2023/05/24 03:03:01;;;;;;;;;;;;;;;;;;5053403;28;20255;-59
2023/05/24 03:05:27;;;;;;;;;;;;;;;;;;5061316;28;19934;-59
2023/05/24 03:07:53;;;;;;;;;;;;;;;;;;5062367;28;19925;-58
2023/05/24 03:10:19;;;;;;;;;;;;;;;;;;5061018;28;19932;-59
2023/05/24 03:12:45;;;;;;;;;;;;;;;;;;5062249;28;20389;-58
2023/05/24 03:15:11;;;;;;;;;;;;;;;;;;5062246;28;19987;-58
2023/05/24 03:17:37;;;;;;;;;;;;;;;;;;5062219;28;20231;-62
2023/05/24 03:20:04;;;;;;;;;;;;;;;;;;5062759;28;19935;-58
2023/05/24 03:22:30;;;;;;;;;;;;;;;;;;5052142;28;19925;-58
2023/05/24 03:24:57;;;;;;;;;;;;;;;;;;5049039;28;20396;-60
2023/05/24 03:27:23;;;;;;;;;;;;;;;;;;5044223;28;19929;-58
2023/05/24 03:29:48;;;;;;;;;;;;;;;;;;5045938;28;19935;-59
2023/05/24 03:32:14;;;;;;;;;;;;;;;;;;5059053;28;20470;-59
2023/05/24 03:34:40;;;;;;;;;;;;;;;;;;5053548;28;20017;-59
2023/05/24 03:37:07;;;;;;;;;;;;;;;;;;5062281;28;19928;-63
2023/05/24 03:39:33;;;;;;;;;;;;;;;;;;5062692;28;19927;-59
2023/05/24 03:41:59;;;;;;;;;;;;;;;;;;5050613;28;19928;-59
2023/05/24 03:44:25;;;;;;;;;;;;;;;;;;5035433;28;20374;-59
2023/05/24 03:46:51;;;;;;;;;;;;;;;;;;5062090;28;19978;-59
2023/05/24 03:49:17;;;;;;;;;;;;;;;;;;5061610;28;19928;-61
2023/05/24 03:51:43;;;;;;;;;;;;;;;;;;5032730;28;19925;-59
2023/05/24 03:54:09;;;;;;;;;;;;;;;;;;5062045;28;19935;-60
2023/05/24 03:56:35;;;;;;;;;;;;;;;;;;5062304;28;19924;-60
2023/05/24 03:59:02;;;;;;;;;;;;;;;;;;5062168;28;19939;-58
2023/05/24 04:01:30;;;;;;;;;;;;;;;;;;5051684;28;20019;-59
2023/05/24 04:03:56;;;;;;;;;;;;;;;;;;5048173;28;20292;-58
2023/05/24 04:06:27;;;;;;;;;;;;;;;;;;5061958;28;19925;-58
2023/05/24 04:08:53;;;;;;;;;;;;;;;;;;5061990;28;19936;-58
2023/05/24 04:11:21;;;;;;;;;;;;;;;;;;5060588;28;19995;-59
2023/05/24 04:13:47;;;;;;;;;;;;;;;;;;5061555;28;19932;-59
2023/05/24 04:16:13;;;;;;;;;;;;;;;;;;5060865;28;20344;-59
2023/05/24 04:18:39;;;;;;;;;;;;;;;;;;5061946;28;20347;-58
2023/05/24 04:21:05;;;;;;;;;;;;;;;;;;5058233;28;19924;-58
2023/05/24 04:23:31;;;;;;;;;;;;;;;;;;5060086;28;20461;-59
2023/05/24 04:25:57;;;;;;;;;;;;;;;;;;5047648;28;19935;-60
2023/05/24 04:28:25;;;;;;;;;;;;;;;;;;5053479;28;19929;-58
2023/05/24 04:30:51;;;;;;;;;;;;;;;;;;5047738;28;19996;-59
2023/05/24 04:33:17;;;;;;;;;;;;;;;;;;5064053;28;19935;-59
2023/05/24 04:35:43;;;;;;;;;;;;;;;;;;5058709;28;19920;-58
2023/05/24 04:38:11;;;;;;;;;;;;;;;;;;5065439;28;20406;-60
2023/05/24 04:40:37;;;;;;;;;;;;;;;;;;5063888;28;19982;-63
2023/05/24 04:43:05;;;;;;;;;;;;;;;;;;5065439;28;19924;-59
2023/05/24 04:45:32;;;;;;;;;;;;;;;;;;5055784;28;19947;-58
2023/05/24 04:47:58;;;;;;;;;;;;;;;;;;5063419;28;19927;-59
2023/05/24 04:50:24;;;;;;;;;;;;;;;;;;5060160;28;19932;-59
2023/05/24 04:52:50;;;;;;;;;;;;;;;;;;5056491;28;19925;-58
2023/05/24 04:55:16;;;;;;;;;;;;;;;;;;5057009;28;19979;-59
2023/05/24 04:57:42;;;;;;;;;;;;;;;;;;5061995;28;19924;-60
2023/05/24 05:00:09;;;;;;;;;;;;;;;;;;5054206;28;19921;-59
2023/05/24 05:02:35;;;;;;;;;;;;;;;;;;5051910;28;19970;-60
2023/05/24 05:05:01;;;;;;;;;;;;;;;;;;5051472;28;19924;-60
2023/05/24 05:07:27;;;;;;;;;;;;;;;;;;5050732;28;20259;-60
2023/05/24 05:09:53;;;;;;;;;;;;;;;;;;5058987;28;19932;-59
2023/05/24 05:12:19;;;;;;;;;;;;;;;;;;5048233;28;19925;-59
2023/05/24 05:14:45;;;;;;;;;;;;;;;;;;5048587;28;19943;-59
2023/05/24 05:17:12;;;;;;;;;;;;;;;;;;5052796;28;19925;-59
2023/05/24 05:19:38;;;;;;;;;;;;;;;;;;5048088;28;19924;-59
2023/05/24 05:22:04;;;;;;;;;;;;;;;;;;5055418;28;19925;-59
2023/05/24 05:24:30;;;;;;;;;;;;;;;;;;5057464;28;19971;-61
2023/05/24 05:26:56;;;;;;;;;;;;;;;;;;5032087;28;19964;-61
2023/05/24 05:29:22;;;;;;;;;;;;;;;;;;5055429;28;19951;-60
2023/05/24 05:31:48;;;;;;;;;;;;;;;;;;5046900;28;19925;-61
2023/05/24 05:34:14;;;;;;;;;;;;;;;;;;5030086;28;19932;-62
2023/05/24 05:36:41;;;;;;;;;;;;;;;;;;5056538;28;19921;-62
2023/05/24 05:39:08;;;;;;;;;;;;;;;;;;5055199;28;19968;-63
2023/05/24 05:41:34;;;;;;;;;;;;;;;;;;5049679;28;19924;-62
2023/05/24 05:44:00;;;;;;;;;;;;;;;;;;5048240;28;19963;-62
2023/05/24 05:55:27;;;;;;;;;;;;;;;;;;5045543;28;19974;-63
2023/05/24 05:57:53;;;;;;;;;;;;;;;;;;5050704;28;20376;-63
2023/05/24 06:00:20;;;;;;;;;;;;;;;;;;5046453;28;20026;-63
2023/05/24 06:02:46;;;;;;;;;;;;;;;;;;5045778;28;19925;-62
2023/05/24 06:05:12;;;;;;;;;;;;;;;;;;5047335;28;19971;-63
2023/05/24 06:07:38;;;;;;;;;;;;;;;;;;5046993;28;19928;-59
2023/05/24 06:10:05;;;;;;;;;;;;;;;;;;5051857;28;19925;-59
2023/05/24 06:12:31;;;;;;;;;;;;;;;;;;5045675;28;20390;-59
2023/05/24 06:14:58;;;;;;;;;;;;;;;;;;5045018;28;19928;-60
2023/05/24 06:17:24;;;;;;;;;;;;;;;;;;5047007;28;19924;-59
2023/05/24 06:19:52;;;;;;;;;;;;;;;;;;5054021;28;19932;-59
2023/05/24 06:22:18;;;;;;;;;;;;;;;;;;5048875;28;19936;-59
2023/05/24 06:24:44;;;;;;;;;;;;;;;;;;5041972;28;19924;-59
2023/05/24 06:27:10;;;;;;;;;;;;;;;;;;5035753;28;19929;-58
2023/05/24 06:29:37;;;;;;;;;;;;;;;;;;5059454;28;19982;-59
2023/05/24 06:32:03;;;;;;;;;;;;;;;;;;5063697;28;19972;-59
2023/05/24 06:34:29;;;;;;;;;;;;;;;;;;5054549;28;19963;-59
2023/05/24 06:36:55;;;;;;;;;;;;;;;;;;5052490;28;19928;-59
2023/05/24 06:39:21;;;;;;;;;;;;;;;;;;5058631;28;20174;-59
2023/05/24 06:41:50;;;;;;;;;;;;;;;;;;5062599;28;20393;-59
2023/05/24 06:44:16;;;;;;;;;;;;;;;;;;5062401;28;20061;-59
2023/05/24 06:46:42;;;;;;;;;;;;;;;;;;5062664;28;19957;-59
2023/05/24 06:49:08;;;;;;;;;;;;;;;;;;5052589;28;19978;-59
2023/05/24 06:51:34;;;;;;;;;;;;;;;;;;5063121;28;19924;-59
2023/05/24 06:54:00;;;;;;;;;;;;;;;;;;5062882;28;20286;-59
2023/05/24 06:56:27;;;;;;;;;;;;;;;;;;5040314;28;19931;-58
2023/05/24 06:58:53;;;;;;;;;;;;;;;;;;5061823;28;20333;-60
2023/05/24 07:01:19;;;;;;;;;;;;;;;;;;5056608;28;19928;-60
2023/05/24 07:03:45;;;;;;;;;;;;;;;;;;5059442;28;19959;-59
2023/05/24 07:06:12;;;;;;;;;;;;;;;;;;5052473;28;20372;-59
2023/05/24 07:08:38;;;;;;;;;;;;;;;;;;5058412;28;19943;-60
2023/05/24 07:11:05;;;;;;;;;;;;;;;;;;5062945;28;19925;-59
2023/05/24 07:13:31;;;;;;;;;;;;;;;;;;5062221;28;19925;-59
2023/05/24 07:15:57;;;;;;;;;;;;;;;;;;5060182;28;20074;-60
2023/05/24 07:18:23;;;;;;;;;;;;;;;;;;5055369;28;20429;-59
2023/05/24 07:20:49;;;;;;;;;;;;;;;;;;5062388;28;19975;-59
2023/05/24 07:23:15;;;;;;;;;;;;;;;;;;5051506;28;19931;-59
2023/05/24 07:25:41;;;;;;;;;;;;;;;;;;5055493;28;19978;-59
2023/05/24 07:28:07;;;;;;;;;;;;;;;;;;5059617;28;19928;-64
2023/05/24 07:30:33;;;;;;;;;;;;;;;;;;5061856;28;20274;-59
2023/05/24 07:32:59;;;;;;;;;;;;;;;;;;5062460;28;19928;-59
2023/05/24 07:35:27;;;;;;;;;;;;;;;;;;5062273;28;19920;-59
2023/05/24 07:37:53;;;;;;;;;;;;;;;;;;5057906;28;19924;-59
2023/05/24 07:40:19;;;;;;;;;;;;;;;;;;5062286;28;20089;-60
2023/05/24 07:42:46;;;;;;;;;;;;;;;;;;5061827;28;19924;-59
2023/05/24 07:45:12;;;;;;;;;;;;;;;;;;5061674;28;19924;-59
2023/05/24 07:47:39;;;;;;;;;;;;;;;;;;5046283;28;19917;-59
2023/05/24 07:50:05;;;;;;;;;;;;;;;;;;5059544;28;19928;-59
2023/05/24 07:52:31;;;;;;;;;;;;;;;;;;5057180;28;19963;-58
2023/05/24 07:54:57;;;;;;;;;;;;;;;;;;5061396;28;19997;-59
2023/05/24 07:57:23;;;;;;;;;;;;;;;;;;5051677;28;19924;-58
2023/05/24 07:59:49;;;;;;;;;;;;;;;;;;5061060;28;19959;-59
2023/05/24 08:02:15;;;;;;;;;;;;;;;;;;5062046;28;19932;-58
2023/05/24 08:04:42;;;;;;;;;;;;;;;;;;5043412;28;19924;-59
2023/05/24 08:07:08;;;;;;;;;;;;;;;;;;5051830;28;20028;-59
2023/05/24 08:09:34;;;;;;;;;;;;;;;;;;5062736;28;20011;-59
2023/05/24 08:12:01;;;;;;;;;;;;;;;;;;5061539;28;19924;-59
2023/05/24 08:14:27;;;;;;;;;;;;;;;;;;5060818;28;20299;-60
2023/05/24 08:16:53;;;;;;;;;;;;;;;;;;5058051;28;20417;-59
2023/05/24 08:19:19;;;;;;;;;;;;;;;;;;5061911;28;19946;-59
2023/05/24 08:21:45;;;;;;;;;;;;;;;;;;5055592;28;19979;-59
2023/05/24 08:24:12;;;;;;;;;;;;;;;;;;5055924;28;19924;-59
2023/05/24 08:26:38;;;;;;;;;;;;;;;;;;5050964;28;19952;-59
2023/05/24 08:29:04;;;;;;;;;;;;;;;;;;5061213;28;19991;-58
2023/05/24 08:31:31;;;;;;;;;;;;;;;;;;5061122;28;19971;-59
2023/05/24 08:33:57;;;;;;;;;;;;;;;;;;5053332;28;19928;-59
2023/05/24 08:36:23;;;;;;;;;;;;;;;;;;5061047;28;19970;-58
2023/05/24 08:38:49;;;;;;;;;;;;;;;;;;5061400;28;19975;-58
2023/05/24 08:41:15;;;;;;;;;;;;;;;;;;5061851;28;20350;-59
2023/05/24 08:43:42;;;;;;;;;;;;;;;;;;5060446;28;19978;-59
2023/05/24 08:46:08;;;;;;;;;;;;;;;;;;5058394;28;20283;-59
2023/05/24 08:48:34;;;;;;;;;;;;;;;;;;5062039;28;19920;-65
2023/05/24 08:51:00;;;;;;;;;;;;;;;;;;5061441;28;19932;-59
2023/05/24 08:53:26;;;;;;;;;;;;;;;;;;5061851;28;19935;-61
2023/05/24 08:55:53;;;;;;;;;;;;;;;;;;5054700;28;19920;-58
2023/05/24 08:58:19;;;;;;;;;;;;;;;;;;5061475;28;19928;-59
2023/05/24 09:00:45;;;;;;;;;;;;;;;;;;5061136;28;19920;-59
2023/05/24 09:03:11;;;;;;;;;;;;;;;;;;5061035;28;19925;-59
2023/05/24 09:05:37;;;;;;;;;;;;;;;;;;5051775;28;19928;-59
2023/05/24 09:08:03;;;;;;;;;;;;;;;;;;5061794;28;19925;-59
2023/05/24 09:10:29;;;;;;;;;;;;;;;;;;5038064;28;19925;-60
2023/05/24 09:12:56;;;;;;;;;;;;;;;;;;5064865;28;19933;-59
2023/05/24 09:15:22;;;;;;;;;;;;;;;;;;5050971;28;20453;-58
2023/05/24 09:17:48;;;;;;;;;;;;;;;;;;5064900;28;19924;-59
2023/05/24 09:20:14;;;;;;;;;;;;;;;;;;5064983;28;20038;-59
2023/05/24 09:22:40;;;;;;;;;;;;;;;;;;5054156;28;20450;-59
2023/05/24 09:25:07;;;;;;;;;;;;;;;;;;5057981;28;19928;-60
2023/05/24 09:27:33;;;;;;;;;;;;;;;;;;5064542;28;19947;-58
2023/05/24 09:30:00;;;;;;;;;;;;;;;;;;5064254;28;19928;-59
2023/05/24 09:32:27;;;;;;;;;;;;;;;;;;5057575;28;20693;-59
2023/05/24 09:34:53;;;;;;;;;;;;;;;;;;5051566;28;20479;-58
2023/05/24 09:37:20;;;;;;;;;;;;;;;;;;5057239;28;20033;-58
2023/05/24 09:39:47;;;;;;;;;;;;;;;;;;5064204;28;19924;-59
2023/05/24 09:42:13;;;;;;;;;;;;;;;;;;5064426;28;20388;-59
2023/05/24 09:44:39;;;;;;;;;;;;;;;;;;5062817;28;19924;-59
2023/05/24 09:47:05;;;;;;;;;;;;;;;;;;5064803;28;19925;-59
2023/05/24 09:49:31;;;;;;;;;;;;;;;;;;5064227;28;19951;-59
2023/05/24 09:51:57;;;;;;;;;;;;;;;;;;5062378;28;20042;-60
2023/05/24 09:54:23;;;;;;;;;;;;;;;;;;5064167;28;19944;-59
2023/05/24 09:56:49;;;;;;;;;;;;;;;;;;5063821;28;19946;-59
2023/05/24 09:59:15;;;;;;;;;;;;;;;;;;5063162;28;19924;-59
2023/05/24 10:01:42;;;;;;;;;;;;;;;;;;5052877;28;19920;-59
2023/05/24 10:04:08;;;;;;;;;;;;;;;;;;5063843;28;19925;-59
2023/05/24 10:06:36;;;;;;;;;;;;;;;;;;5063222;28;20309;-59
2023/05/24 10:09:04;;;;;;;;;;;;;;;;;;5064335;28;19947;-59
2023/05/24 10:11:30;;;;;;;;;;;;;;;;;;5063442;28;20465;-60
2023/05/24 10:13:56;;;;;;;;;;;;;;;;;;5062710;28;20501;-59
2023/05/24 10:16:22;;;;;;;;;;;;;;;;;;5063747;28;20003;-60
2023/05/24 10:18:49;;;;;;;;;;;;;;;;;;5063170;28;19928;-61
2023/05/24 10:21:15;;;;;;;;;;;;;;;;;;5057817;28;20359;-58
2023/05/24 10:23:41;;;;;;;;;;;;;;;;;;5052940;28;19930;-59
2023/05/24 10:26:07;;;;;;;;;;;;;;;;;;5063505;28;19935;-64
2023/05/24 10:28:33;;;;;;;;;;;;;;;;;;5063007;28;19968;-59
2023/05/24 10:30:59;;;;;;;;;;;;;;;;;;5053132;28;19975;-60
2023/05/24 10:33:25;;;;;;;;;;;;;;;;;;5062612;28;20296;-59
2023/05/24 10:35:51;;;;;;;;;;;;;;;;;;5062445;28;19924;-59
2023/05/24 10:38:17;;;;;;;;;;;;;;;;;;5063246;28;19939;-60
2023/05/24 10:40:43;;;;;;;;;;;;;;;;;;5057535;28;19925;-60
2023/05/24 10:43:09;;;;;;;;;;;;;;;;;;5058508;28;20024;-60
2023/05/24 10:45:35;;;;;;;;;;;;;;;;;;5059760;28;19924;-60
2023/05/24 10:48:02;;;;;;;;;;;;;;;;;;5052154;28;19932;-60
2023/05/24 10:50:28;;;;;;;;;;;;;;;;;;5047327;28;19925;-60
2023/05/24 10:52:54;;;;;;;;;;;;;;;;;;5045716;28;20364;-60
2023/05/24 10:55:20;;;;;;;;;;;;;;;;;;5028632;28;20437;-60
2023/05/24 10:57:46;;;;;;;;;;;;;;;;;;5046162;28;20406;-61
2023/05/24 11:00:15;;;;;;;;;;;;;;;;;;5046340;28;19924;-60
2023/05/24 11:02:41;;;;;;;;;;;;;;;;;;5046533;28;19925;-60
2023/05/24 11:05:07;;;;;;;;;;;;;;;;;;5032167;28;19928;-61
2023/05/24 11:07:34;;;;;;;;;;;;;;;;;;5046766;28;19925;-60
2023/05/24 11:10:05;;;;;;;;;;;;;;;;;;5055920;28;19924;-60
2023/05/24 11:12:37;;;;;;;;;;;;;;;;;;5046806;28;19924;-61
2023/05/24 11:15:03;;;;;;;;;;;;;;;;;;5054309;28;20365;-60
2023/05/24 11:17:29;;;;;;;;;;;;;;;;;;5029108;28;19971;-60
2023/05/24 11:19:55;;;;;;;;;;;;;;;;;;5053472;28;19929;-59
2023/05/24 11:22:21;;;;;;;;;;;;;;;;;;5050364;28;19932;-60
2023/05/24 11:24:47;;;;;;;;;;;;;;;;;;5042686;28;19933;-61
2023/05/24 11:27:13;;;;;;;;;;;;;;;;;;5056282;28;19924;-60
2023/05/24 11:29:39;;;;;;;;;;;;;;;;;;5051063;28;20011;-60
2023/05/24 11:32:06;;;;;;;;;;;;;;;;;;5041395;28;19946;-60
2023/05/24 11:34:32;;;;;;;;;;;;;;;;;;5052750;28;19990;-59
2023/05/24 11:36:59;;;;;;;;;;;;;;;;;;5049023;28;19975;-59
2023/05/24 11:39:25;;;;;;;;;;;;;;;;;;5058042;28;19945;-59
2023/05/24 11:41:51;;;;;;;;;;;;;;;;;;5048074;28;19986;-60
2023/05/24 11:44:18;;;;;;;;;;;;;;;;;;5046427;28;19928;-60
2023/05/24 11:46:44;;;;;;;;;;;;;;;;;;5047553;28;19936;-59
2023/05/24 11:49:10;;;;;;;;;;;;;;;;;;5051307;28;20362;-58
2023/05/24 11:51:36;;;;;;;;;;;;;;;;;;5044382;28;19989;-60
2023/05/24 11:54:02;;;;;;;;;;;;;;;;;;5045654;28;19933;-59
2023/05/24 11:56:28;;;;;;;;;;;;;;;;;;5037577;28;19971;-59
2023/05/24 11:58:55;;;;;;;;;;;;;;;;;;5049553;28;19972;-59
2023/05/24 12:01:21;;;;;;;;;;;;;;;;;;5043211;28;19925;-59
2023/05/24 12:03:47;;;;;;;;;;;;;;;;;;5058132;28;19924;-58
2023/05/24 12:06:13;;;;;;;;;;;;;;;;;;5044133;28;20633;-58
2023/05/24 12:08:40;;;;;;;;;;;;;;;;;;5053049;28;19928;-59
2023/05/24 12:11:06;;;;;;;;;;;;;;;;;;5045946;28;20404;-59
2023/05/24 12:13:33;;;;;;;;;;;;;;;;;;5042479;28;20016;-58
2023/05/24 12:15:59;;;;;;;;;;;;;;;;;;5047795;28;20397;-58
2023/05/24 12:18:25;;;;;;;;;;;;;;;;;;5049800;28;20447;-58
2023/05/24 12:20:51;;;;;;;;;;;;;;;;;;5049460;28;19932;-58
2023/05/24 12:23:17;;;;;;;;;;;;;;;;;;5050348;28;19977;-59
2023/05/24 12:25:43;;;;;;;;;;;;;;;;;;5054196;28;20004;-59
2023/05/24 12:28:10;;;;;;;;;;;;;;;;;;5058401;28;19960;-59
2023/05/24 12:30:36;;;;;;;;;;;;;;;;;;5061678;28;20019;-59
2023/05/24 12:33:02;;;;;;;;;;;;;;;;;;5062501;28;19936;-59
2023/05/24 12:35:28;;;;;;;;;;;;;;;;;;5060322;28;19968;-59
2023/05/24 12:37:54;;;;;;;;;;;;;;;;;;5050741;28;19987;-58
2023/05/24 12:40:20;;;;;;;;;;;;;;;;;;5060318;28;19928;-58
2023/05/24 12:42:48;;;;;;;;;;;;;;;;;;5062880;28;19972;-59
2023/05/24 12:45:16;;;;;;;;;;;;;;;;;;5064358;28;19932;-59
2023/05/24 12:47:43;;;;;;;;;;;;;;;;;;5056079;28;20062;-59
2023/05/24 12:50:09;;;;;;;;;;;;;;;;;;5062014;28;19928;-58
2023/05/24 12:52:35;;;;;;;;;;;;;;;;;;5065609;28;19954;-61
2023/05/24 12:55:01;;;;;;;;;;;;;;;;;;5059762;28;19948;-58
2023/05/24 12:57:27;;;;;;;;;;;;;;;;;;5060104;28;20501;-60
2023/05/24 12:59:53;;;;;;;;;;;;;;;;;;5057905;28;19924;-58
2023/05/24 13:02:19;;;;;;;;;;;;;;;;;;5065416;28;20286;-58
2023/05/24 13:04:45;;;;;;;;;;;;;;;;;;5064547;28;19931;-58
2023/05/24 13:07:11;;;;;;;;;;;;;;;;;;5057384;28;19931;-58
2023/05/24 13:09:37;;;;;;;;;;;;;;;;;;5058052;28;19924;-60
2023/05/24 13:12:04;;;;;;;;;;;;;;;;;;5065157;28;19999;-58
2023/05/24 13:14:30;;;;;;;;;;;;;;;;;;5062764;28;19991;-58
2023/05/24 13:16:56;;;;;;;;;;;;;;;;;;5064451;28;20065;-59
2023/05/24 13:19:22;;;;;;;;;;;;;;;;;;5064840;28;20384;-59
2023/05/24 13:21:48;;;;;;;;;;;;;;;;;;5061184;28;20015;-59
2023/05/24 13:24:14;;;;;;;;;;;;;;;;;;5059689;28;19931;-59
2023/05/24 13:26:40;;;;;;;;;;;;;;;;;;5064048;28;20085;-59
2023/05/24 13:29:06;;;;;;;;;;;;;;;;;;5064608;28;20534;-63
2023/05/24 13:31:32;;;;;;;;;;;;;;;;;;5065192;28;19995;-59
2023/05/24 13:33:59;;;;;;;;;;;;;;;;;;5060603;28;19920;-59
2023/05/24 13:36:25;;;;;;;;;;;;;;;;;;5064737;28;19929;-59
2023/05/24 13:38:51;;;;;;;;;;;;;;;;;;5060531;28;19935;-59
2023/05/24 13:41:17;;;;;;;;;;;;;;;;;;5059707;28;19934;-59
2023/05/24 13:43:43;;;;;;;;;;;;;;;;;;5054393;28;20271;-58
2023/05/24 13:46:09;;;;;;;;;;;;;;;;;;5064489;28;20280;-58
2023/05/24 13:48:35;;;;;;;;;;;;;;;;;;5064018;28;19925;-59
2023/05/24 13:51:01;;;;;;;;;;;;;;;;;;5064387;28;20020;-58
2023/05/24 13:53:27;;;;;;;;;;;;;;;;;;5053951;28;19968;-61
2023/05/24 13:55:54;;;;;;;;;;;;;;;;;;5046012;28;19932;-59
2023/05/24 13:58:20;;;;;;;;;;;;;;;;;;5063353;28;19928;-58
2023/05/24 14:00:46;;;;;;;;;;;;;;;;;;5061064;28;20358;-58
2023/05/24 14:03:14;;;;;;;;;;;;;;;;;;5056099;28;19972;-59
2023/05/24 14:05:40;;;;;;;;;;;;;;;;;;5062482;28;19933;-59
2023/05/24 14:08:06;;;;;;;;;;;;;;;;;;5046417;28;19979;-59
2023/05/24 14:10:32;;;;;;;;;;;;;;;;;;5064011;28;19973;-59
2023/05/24 14:12:58;;;;;;;;;;;;;;;;;;5059532;28;19978;-59
2023/05/24 14:15:25;;;;;;;;;;;;;;;;;;5063724;28;19924;-58
2023/05/24 14:17:51;;;;;;;;;;;;;;;;;;5063050;28;19935;-57
2023/05/24 14:20:17;;;;;;;;;;;;;;;;;;5063623;28;19932;-57
2023/05/24 14:22:43;;;;;;;;;;;;;;;;;;5062211;28;19933;-57
2023/05/24 14:25:09;;;;;;;;;;;;;;;;;;5059851;28;20672;-58
2023/05/24 14:27:35;;;;;;;;;;;;;;;;;;5063021;28;19925;-63
2023/05/24 14:30:01;;;;;;;;;;;;;;;;;;5050690;28;19947;-58
2023/05/24 14:32:27;;;;;;;;;;;;;;;;;;5058913;28;20101;-59
2023/05/24 14:34:53;;;;;;;;;;;;;;;;;;5051691;28;20345;-59
2023/05/24 14:37:19;;;;;;;;;;;;;;;;;;5063306;28;19931;-58
2023/05/24 14:39:45;;;;;;;;;;;;;;;;;;5063045;28;19924;-58
2023/05/24 14:42:11;;;;;;;;;;;;;;;;;;5058998;28;20379;-58
2023/05/24 14:44:37;;;;;;;;;;;;;;;;;;5060110;28;19933;-59
2023/05/24 14:47:03;;;;;;;;;;;;;;;;;;5053931;28;19928;-58
2023/05/24 14:49:29;;;;;;;;;;;;;;;;;;5045306;28;19924;-59
2023/05/24 14:51:55;;;;;;;;;;;;;;;;;;5049679;28;19981;-58
2023/05/24 14:54:21;;;;;;;;;;;;;;;;;;5045641;28;19931;-58
2023/05/24 14:56:47;;;;;;;;;;;;;;;;;;5055207;28;19928;-59
2023/05/24 14:59:14;;;;;;;;;;;;;;;;;;5049244;28;19925;-58
2023/05/24 15:01:40;;;;;;;;;;;;;;;;;;5054626;28;19948;-57
2023/05/24 15:04:06;;;;;;;;;;;;;;;;;;5050120;28;19928;-60
2023/05/24 15:06:34;;;;;;;;;;;;;;;;;;5051709;28;20015;-58
2023/05/24 15:09:00;;;;;;;;;;;;;;;;;;5051315;28;19925;-58
2023/05/24 15:11:26;;;;;;;;;;;;;;;;;;5045991;28;19925;-58
2023/05/24 15:13:57;;;;;;;;;;;;;;;;;;5043820;28;19963;-58
2023/05/24 15:16:23;;;;;;;;;;;;;;;;;;5044764;28;20420;-58
2023/05/24 15:18:49;;;;;;;;;;;;;;;;;;5050584;28;20021;-59
2023/05/24 15:21:15;;;;;;;;;;;;;;;;;;5030252;28;19928;-58
2023/05/24 15:23:41;;;;;;;;;;;;;;;;;;5048568;28;20011;-59
2023/05/24 15:26:07;;;;;;;;;;;;;;;;;;5057019;28;19932;-61
2023/05/24 15:28:33;;;;;;;;;;;;;;;;;;5056152;28;19928;-59
2023/05/24 15:31:00;;;;;;;;;;;;;;;;;;5055588;28;19956;-59
2023/05/24 15:33:26;;;;;;;;;;;;;;;;;;5059644;28;19976;-59
2023/05/24 15:35:53;;;;;;;;;;;;;;;;;;5056055;28;19931;-59
2023/05/24 15:38:19;;;;;;;;;;;;;;;;;;5059694;28;20686;-60
2023/05/24 15:40:47;;;;;;;;;;;;;;;;;;5049421;28;21181;-61
2023/05/24 15:43:14;;;;;;;;;;;;;;;;;;5054769;28;20358;-60
2023/05/24 15:45:40;;;;;;;;;;;;;;;;;;5051124;28;19935;-59
2023/05/24 15:51:08;;;;;;;;;;;;;;;;;;5050067;28;19919;-59
2023/05/24 15:53:35;;;;;;;;;;;;;;;;;;5044567;28;20022;-63
2023/05/24 15:56:01;;;;;;;;;;;;;;;;;;5049172;28;19928;-59
2023/05/24 15:58:27;;;;;;;;;;;;;;;;;;5043807;28;20036;-59
2023/05/24 16:00:53;;;;;;;;;;;;;;;;;;5043325;28;20397;-61
2023/05/24 16:03:19;;;;;;;;;;;;;;;;;;5035616;28;20650;-60
2023/05/24 16:05:48;;;;;;;;;;;;;;;;;;5052682;28;19990;-60
2023/05/24 16:08:15;;;;;;;;;;;;;;;;;;5049057;28;19999;-60
2023/05/24 16:10:41;;;;;;;;;;;;;;;;;;5049586;28;19928;-59
2023/05/24 16:13:07;;;;;;;;;;;;;;;;;;5045300;28;19948;-60
2023/05/24 16:15:34;;;;;;;;;;;;;;;;;;5048236;28;20374;-60
2023/05/24 16:18:00;;;;;;;;;;;;;;;;;;5051834;28;19928;-60
2023/05/24 16:20:26;;;;;;;;;;;;;;;;;;5051417;28;19940;-60
2023/05/24 16:22:52;;;;;;;;;;;;;;;;;;5049053;28;19948;-60
2023/05/24 16:25:18;;;;;;;;;;;;;;;;;;5050101;28;20778;-59
2023/05/24 16:27:45;;;;;;;;;;;;;;;;;;5054370;28;19939;-59
2023/05/24 16:30:11;;;;;;;;;;;;;;;;;;5057802;28;20003;-60
2023/05/24 16:32:38;;;;;;;;;;;;;;;;;;5047533;28;19928;-64
2023/05/24 16:35:04;;;;;;;;;;;;;;;;;;5058467;28;19978;-60
2023/05/24 16:37:30;;;;;;;;;;;;;;;;;;5061504;28;19931;-60
2023/05/24 16:39:56;;;;;;;;;;;;;;;;;;5062014;28;19933;-60
2023/05/24 16:42:22;;;;;;;;;;;;;;;;;;5062600;28;19994;-59
2023/05/24 16:44:49;;;;;;;;;;;;;;;;;;5058581;28;19959;-61
2023/05/24 16:47:15;;;;;;;;;;;;;;;;;;5063143;28;19931;-61
2023/05/24 16:49:41;;;;;;;;;;;;;;;;;;5064563;28;19928;-60